Time;durP1;ratioP1;P1;durP2;ratioP2;P2;SDS_P1;SDS_P2;PMS_P1;PMS_P2;Temp;Humidity;BMP_temperature;BMP_pressure;BME280_temperature;BME280_humidity;BME280_pressure;Samples;Min_cycle;Max_cycle;Signal;HPM_P1;HPM_P2
2023/09/24 00:01:51;;;;;;;7.22;3.78;;;;;;;-145.50;100.00;65435.88;5060846;28;20064;-74
2023/09/24 00:04:17;;;;;;;7.60;4.13;;;;;;;-145.50;100.00;65435.88;5052478;28;20063;-73
2023/09/24 00:06:45;;;;;;;7.80;3.65;;;;;;;-145.50;100.00;65435.88;5052137;28;20127;-74
2023/09/24 00:09:14;;;;;;;5.68;3.42;;;;;;;-145.50;100.00;65435.88;5053640;28;20052;-74
2023/09/24 00:11:41;;;;;;;5.97;3.50;;;;;;;-145.50;100.00;65435.88;5052981;28;20053;-74
2023/09/24 00:14:10;;;;;;;6.95;3.33;;;;;;;-145.50;100.00;65435.88;5047020;28;20055;-74
2023/09/24 00:16:37;;;;;;;6.70;3.40;;;;;;;-145.50;100.00;65435.88;5056471;28;20131;-74
2023/09/24 00:19:04;;;;;;;6.15;3.72;;;;;;;-145.50;100.00;65435.88;5056862;28;20052;-74
2023/09/24 00:21:30;;;;;;;9.07;3.33;;;;;;;-145.50;100.00;65435.88;5047244;28;20637;-74
2023/09/24 00:23:57;;;;;;;6.13;3.55;;;;;;;-145.50;100.00;65435.88;5061056;28;20056;-73
2023/09/24 00:26:27;;;;;;;7.32;4.68;;;;;;;-145.50;100.00;65435.88;5049256;28;20056;-74
2023/09/24 00:28:53;;;;;;;11.68;7.07;;;;;;;-145.50;100.00;65435.88;5054968;28;20054;-74
2023/09/24 00:31:22;;;;;;;11.13;7.82;;;;;;;-145.50;100.00;65435.88;5067426;28;20055;-74
2023/09/24 00:33:51;;;;;;;9.90;5.53;;;;;;;-145.50;100.00;65435.88;5058753;28;20059;-73
2023/09/24 00:36:18;;;;;;;8.30;4.75;;;;;;;-145.50;100.00;65435.88;5068061;28;20049;-73
2023/09/24 00:38:45;;;;;;;7.30;4.10;;;;;;;-145.50;100.00;65435.88;5068128;28;20044;-73
2023/09/24 00:41:13;;;;;;;9.95;4.25;;;;;;;-145.50;100.00;65435.88;5064760;28;20068;-73
2023/09/24 00:43:43;;;;;;;;;;;;;;;-145.50;100.00;65435.88;5054413;28;20501;-73
2023/09/24 00:46:11;;;;;;;6.68;4.30;;;;;;;-145.50;100.00;65435.88;5056106;28;19970;-73
2023/09/24 00:48:38;;;;;;;7.88;4.43;;;;;;;-145.50;100.00;65435.88;5049110;28;20059;-73
2023/09/24 00:51:26;;;;;;;8.80;4.07;;;;;;;-145.50;100.00;65435.88;5049174;28;20501;-73
2023/09/24 00:53:53;;;;;;;7.43;3.65;;;;;;;-145.50;100.00;65435.88;5047758;28;20584;-73
2023/09/24 00:56:21;;;;;;;9.82;3.90;;;;;;;-145.50;100.00;65435.88;5043518;28;20487;-73
2023/09/24 00:58:50;;;;;;;6.50;3.53;;;;;;;-145.50;100.00;65435.88;5053621;28;20083;-73
2023/09/24 01:01:19;;;;;;;5.93;3.40;;;;;;;-145.50;100.00;65435.88;5035729;28;20139;-73
2023/09/24 01:03:48;;;;;;;6.50;3.05;;;;;;;-145.50;100.00;65435.88;5053968;28;20057;-74
2023/09/24 01:06:17;;;;;;;5.90;3.58;;;;;;;-145.50;100.00;65435.88;5038503;28;20464;-73
2023/09/24 01:08:43;;;;;;;8.10;3.80;;;;;;;-145.50;100.00;65435.88;5060654;28;20049;-74
2023/09/24 01:11:10;;;;;;;9.70;3.72;;;;;;;-145.50;100.00;65435.88;5062722;28;20080;-74
2023/09/24 01:13:56;;;;;;;6.20;3.70;;;;;;;-145.50;100.00;65435.88;5055760;28;20700;-74
2023/09/24 01:16:22;;;;;;;7.45;3.83;;;;;;;-145.50;100.00;65435.88;5046599;28;20044;-74
2023/09/24 01:18:51;;;;;;;7.78;3.90;;;;;;;-145.50;100.00;65435.88;5053928;28;20052;-75
2023/09/24 01:21:18;;;;;;;9.52;4.10;;;;;;;-145.50;100.00;65435.88;5051335;28;20131;-74
2023/09/24 01:23:48;;;;;;;6.18;3.95;;;;;;;-145.50;100.00;65435.88;5053831;28;20051;-74
2023/09/24 01:26:19;;;;;;;7.72;4.07;;;;;;;-145.50;100.00;65435.88;5053507;28;20080;-74
2023/09/24 01:28:47;;;;;;;7.93;4.60;;;;;;;-145.50;100.00;65435.88;5050761;28;20069;-73
2023/09/24 01:31:15;;;;;;;7.22;4.80;;;;;;;-145.50;100.00;65435.88;5041715;28;20060;-73
2023/09/24 01:33:43;;;;;;;8.52;4.07;;;;;;;-145.50;100.00;65435.88;5060843;28;20056;-73
2023/09/24 01:36:10;;;;;;;6.53;4.30;;;;;;;-145.50;100.00;65435.88;5059777;28;20056;-73
2023/09/24 01:38:41;;;;;;;7.43;4.57;;;;;;;-145.50;100.00;65435.88;5065555;28;20052;-73
2023/09/24 01:41:10;;;;;;;7.13;4.25;;;;;;;-145.50;100.00;65435.88;5061317;28;20489;-73
2023/09/24 01:43:43;;;;;;;9.85;4.85;;;;;;;-145.50;100.00;65435.88;5060874;28;20064;-73
2023/09/24 01:46:13;;;;;;;6.72;3.92;;;;;;;-145.50;100.00;65435.88;5053589;28;20048;-73
2023/09/24 01:48:43;;;;;;;6.97;4.18;;;;;;;-145.50;100.00;65435.88;5061492;28;20204;-73
2023/09/24 01:51:10;;;;;;;9.82;4.80;;;;;;;-145.50;100.00;65435.88;5065864;28;20470;-73
2023/09/24 01:53:38;;;;;;;12.10;5.30;;;;;;;-145.50;100.00;65435.88;5057474;28;20139;-74
2023/09/24 01:56:07;;;;;;;7.88;4.47;;;;;;;-145.50;100.00;65435.88;5054918;28;20770;-73
2023/09/24 01:58:38;;;;;;;8.15;4.78;;;;;;;-145.50;100.00;65435.88;5050617;28;20517;-73
2023/09/24 02:01:07;;;;;;;8.13;4.57;;;;;;;-145.50;100.00;65435.88;5061851;28;20067;-74
2023/09/24 02:03:35;;;;;;;8.18;4.47;;;;;;;-145.50;100.00;65435.88;5061114;28;20055;-73
2023/09/24 02:06:03;;;;;;;10.57;4.78;;;;;;;-145.50;100.00;65435.88;5057886;28;20724;-74
2023/09/24 02:08:30;;;;;;;8.73;4.60;;;;;;;-145.50;100.00;65435.88;5060479;28;20072;-73
2023/09/24 02:10:58;;;;;;;13.75;5.07;;;;;;;-145.50;100.00;65435.88;5049305;28;20570;-73
2023/09/24 02:13:26;;;;;;;7.47;4.22;;;;;;;-145.50;100.00;65435.88;5056975;28;20052;-74
2023/09/24 02:15:53;;;;;;;9.50;4.30;;;;;;;-145.50;100.00;65435.88;5051175;28;20470;-74
2023/09/24 02:18:19;;;;;;;8.88;3.95;;;;;;;-145.50;100.00;65435.88;5051779;28;20064;-73
2023/09/24 02:20:47;;;;;;;11.52;5.45;;;;;;;-145.50;100.00;65435.88;5061871;28;20082;-73
2023/09/24 02:23:14;;;;;;;12.83;7.80;;;;;;;-145.50;100.00;65435.88;5052852;28;20146;-75
2023/09/24 02:25:48;;;;;;;15.07;8.13;;;;;;;-145.50;100.00;65435.88;5055386;28;20059;-75
2023/09/24 02:28:17;;;;;;;11.98;7.20;;;;;;;-145.50;100.00;65435.88;5049916;28;20118;-74
2023/09/24 02:30:45;;;;;;;12.30;6.05;;;;;;;-145.50;100.00;65435.88;5062423;28;20312;-74
2023/09/24 02:33:11;;;;;;;9.23;5.03;;;;;;;-145.50;100.00;65435.88;5057809;28;20420;-75
2023/09/24 02:35:39;;;;;;;9.98;5.43;;;;;;;-145.50;100.00;65435.88;5057079;28;20073;-74
2023/09/24 02:38:08;;;;;;;7.70;4.85;;;;;;;-145.50;100.00;65435.88;5063013;28;20106;-73
2023/09/24 02:40:35;;;;;;;8.18;5.03;;;;;;;-145.50;100.00;65435.88;5035483;28;20056;-74
2023/09/24 02:43:03;;;;;;;7.90;4.80;;;;;;;-145.50;100.00;65435.88;5058891;28;20229;-74
2023/09/24 02:45:30;;;;;;;8.95;4.80;;;;;;;-145.50;100.00;65435.88;5043123;28;20098;-73
2023/09/24 02:47:57;;;;;;;8.38;4.30;;;;;;;-145.50;100.00;65435.88;5063934;28;20079;-73
2023/09/24 02:50:27;;;;;;;7.65;4.35;;;;;;;-145.50;100.00;65435.88;5061747;28;20053;-73
2023/09/24 02:52:56;;;;;;;10.55;4.55;;;;;;;-145.50;100.00;65435.88;5049009;28;20130;-73
2023/09/24 02:55:23;;;;;;;;;;;;;;;-145.50;100.00;65435.88;5054515;28;20056;-74
2023/09/24 02:57:53;;;;;;;11.25;4.63;;;;;;;-145.50;100.00;65435.88;5053698;28;20290;-73
2023/09/24 03:00:26;;;;;;;7.35;5.00;;;;;;;-145.50;100.00;65435.88;5061139;28;20052;-73
2023/09/24 03:02:56;;;;;;;6.68;4.22;;;;;;;-145.50;100.00;65435.88;5050502;28;20056;-73
2023/09/24 03:05:28;;;;;;;9.50;4.47;;;;;;;-145.50;100.00;65435.88;5065039;28;20048;-73
2023/09/24 03:07:57;;;;;;;9.02;4.88;;;;;;;-145.50;100.00;65435.88;5046115;28;20055;-73
2023/09/24 03:10:23;;;;;;;9.50;4.53;;;;;;;-145.50;100.00;65435.88;5055205;28;20056;-73
2023/09/24 03:12:50;;;;;;;7.70;4.05;;;;;;;-145.50;100.00;65435.88;5058936;28;20595;-73
2023/09/24 03:15:18;;;;;;;8.52;4.82;;;;;;;-145.50;100.00;65435.88;5059414;28;20420;-74
2023/09/24 03:17:47;;;;;;;9.85;4.43;;;;;;;-145.50;100.00;65435.88;5065275;28;20555;-73
2023/09/24 03:20:16;;;;;;;8.13;4.50;;;;;;;-145.50;100.00;65435.88;5054109;28;20450;-73
2023/09/24 03:22:48;;;;;;;6.53;4.55;;;;;;;-145.50;100.00;65435.88;5058212;28;20052;-74
2023/09/24 03:25:19;;;;;;;10.13;4.90;;;;;;;-145.50;100.00;65435.88;5058107;28;20060;-73
2023/09/24 03:27:47;;;;;;;8.88;4.38;;;;;;;-145.50;100.00;65435.88;5060451;28;20055;-74
2023/09/24 03:30:14;;;;;;;7.72;4.65;;;;;;;-145.50;100.00;65435.88;5042575;28;20056;-74
2023/09/24 03:32:41;;;;;;;8.10;4.28;;;;;;;-145.50;100.00;65435.88;5062769;28;20052;-74
2023/09/24 03:35:09;;;;;;;7.17;4.37;;;;;;;-145.50;100.00;65435.88;5059690;28;20106;-73
2023/09/24 03:37:37;;;;;;;8.73;4.18;;;;;;;-145.50;100.00;65435.88;5049777;28;20059;-74
2023/09/24 03:40:15;;;;;;;7.40;4.00;;;;;;;-145.50;100.00;65435.88;5045614;28;20413;-74
2023/09/24 03:42:42;;;;;;;7.47;4.68;;;;;;;-145.50;100.00;65435.88;5050564;28;20077;-74
2023/09/24 03:45:11;;;;;;;12.95;4.60;;;;;;;-145.50;100.00;65435.88;5054286;28;20057;-74
2023/09/24 03:47:38;;;;;;;6.35;3.75;;;;;;;-145.50;100.00;65435.88;5053376;28;20063;-74
2023/09/24 03:50:09;;;;;;;7.38;4.00;;;;;;;-145.50;100.00;65435.88;5062205;28;20516;-73
2023/09/24 03:52:37;;;;;;;7.45;4.13;;;;;;;-145.50;100.00;65435.88;5046870;28;20750;-74
2023/09/24 03:55:04;;;;;;;6.30;4.10;;;;;;;-145.50;100.00;65435.88;5045384;28;20145;-74
2023/09/24 03:57:31;;;;;;;7.30;4.18;;;;;;;-145.50;100.00;65435.88;5058105;28;20098;-74
2023/09/24 03:59:58;;;;;;;6.97;4.40;;;;;;;-145.50;100.00;65435.88;5050824;28;20049;-74
2023/09/24 04:02:26;;;;;;;11.75;4.53;;;;;;;-145.50;100.00;65435.88;5040958;28;20087;-74
2023/09/24 04:04:53;;;;;;;7.15;4.35;;;;;;;-145.50;100.00;65435.88;5044700;28;20049;-74
2023/09/24 04:07:20;;;;;;;10.23;4.35;;;;;;;-145.50;100.00;65435.88;5049089;28;20115;-74
2023/09/24 04:09:50;;;;;;;8.35;4.85;;;;;;;-145.50;100.00;65435.88;5063426;28;20045;-74
2023/09/24 04:12:16;;;;;;;6.13;4.15;;;;;;;-145.50;100.00;65435.88;5039100;28;20053;-74
2023/09/24 04:14:43;;;;;;;7.43;4.30;;;;;;;-145.50;100.00;65435.88;5045278;28;20044;-74
2023/09/24 04:17:09;;;;;;;6.90;4.45;;;;;;;-145.50;100.00;65435.88;5052842;28;20044;-73
2023/09/24 04:19:36;;;;;;;6.80;4.22;;;;;;;-145.50;100.00;65435.88;5055278;28;20044;-74
2023/09/24 04:22:03;;;;;;;7.40;4.30;;;;;;;-145.50;100.00;65435.88;5053943;28;20053;-74
2023/09/24 04:24:29;;;;;;;8.75;4.72;;;;;;;-145.50;100.00;65435.88;5052406;28;20420;-74
2023/09/24 04:26:56;;;;;;;7.15;4.57;;;;;;;-145.50;100.00;65435.88;5055251;28;20048;-73
2023/09/24 04:29:23;;;;;;;8.95;4.68;;;;;;;-145.50;100.00;65435.88;5041468;28;20045;-74
2023/09/24 04:31:50;;;;;;;5.88;4.25;;;;;;;-145.50;100.00;65435.88;5050061;28;20053;-74
2023/09/24 04:34:19;;;;;;;8.80;4.40;;;;;;;-145.50;100.00;65435.88;5054872;28;20056;-74
2023/09/24 04:36:46;;;;;;;8.55;4.72;;;;;;;-145.50;100.00;65435.88;5052777;28;20346;-74
2023/09/24 04:39:13;;;;;;;7.20;4.30;;;;;;;-145.50;100.00;65435.88;5035969;28;20049;-73
2023/09/24 04:41:42;;;;;;;7.63;4.60;;;;;;;-145.50;100.00;65435.88;5044658;28;20432;-74
2023/09/24 04:44:09;;;;;;;8.13;4.68;;;;;;;-145.50;100.00;65435.88;5048424;28;20053;-74
2023/09/24 04:46:36;;;;;;;8.30;4.35;;;;;;;-145.50;100.00;65435.88;5044240;28;20338;-74
2023/09/24 04:49:04;;;;;;;6.75;4.53;;;;;;;-145.50;100.00;65435.88;5044721;28;20080;-74
2023/09/24 04:51:34;;;;;;;7.82;4.50;;;;;;;-145.50;100.00;65435.88;5055134;28;20147;-74
2023/09/24 04:54:03;;;;;;;7.88;4.50;;;;;;;-145.50;100.00;65435.88;5058691;28;20048;-74
2023/09/24 04:56:30;;;;;;;8.35;4.22;;;;;;;-145.50;100.00;65435.88;5041006;28;20497;-74
2023/09/24 04:58:57;;;;;;;6.72;4.63;;;;;;;-145.50;100.00;65435.88;5062868;28;20048;-74
2023/09/24 05:01:23;;;;;;;7.30;4.32;;;;;;;-145.50;100.00;65435.88;5046740;28;20500;-74
2023/09/24 05:03:51;;;;;;;7.97;4.75;;;;;;;-145.50;100.00;65435.88;5052599;28;20056;-74
2023/09/24 05:06:18;;;;;;;6.63;4.65;;;;;;;-145.50;100.00;65435.88;5061759;28;20155;-74
2023/09/24 05:08:47;;;;;;;6.57;4.00;;;;;;;-145.50;100.00;65435.88;5049770;28;20135;-74
2023/09/24 05:11:13;;;;;;;7.95;4.40;;;;;;;-145.50;100.00;65435.88;5039664;28;20540;-73
2023/09/24 05:13:40;;;;;;;6.43;3.85;;;;;;;-145.50;100.00;65435.88;5045584;28;20056;-73
2023/09/24 05:16:08;;;;;;;9.95;4.25;;;;;;;-145.50;100.00;65435.88;5044760;28;20056;-74
2023/09/24 05:18:35;;;;;;;6.45;4.10;;;;;;;-145.50;100.00;65435.88;5063003;28;20531;-74
2023/09/24 05:21:06;;;;;;;8.00;4.82;;;;;;;-145.50;100.00;65435.88;5041804;28;20058;-74
2023/09/24 05:23:33;;;;;;;6.78;4.22;;;;;;;-145.50;100.00;65435.88;5057133;28;20114;-75
2023/09/24 05:26:03;;;;;;;7.70;4.60;;;;;;;-145.50;100.00;65435.88;5057028;28;20473;-74
2023/09/24 05:28:30;;;;;;;8.73;4.22;;;;;;;-145.50;100.00;65435.88;5059596;28;20045;-73
2023/09/24 05:30:57;;;;;;;7.57;4.40;;;;;;;-145.50;100.00;65435.88;5052536;28;20119;-74
2023/09/24 05:33:24;;;;;;;7.57;4.70;;;;;;;-145.50;100.00;65435.88;5053513;28;20364;-74
2023/09/24 05:35:51;;;;;;;5.70;4.30;;;;;;;-145.50;100.00;65435.88;5048016;28;20493;-74
2023/09/24 05:38:19;;;;;;;7.30;3.83;;;;;;;-145.50;100.00;65435.88;5043188;28;20469;-74
2023/09/24 05:40:46;;;;;;;4.75;3.90;;;;;;;-145.50;100.00;65435.88;5047575;28;20056;-74
2023/09/24 05:43:13;;;;;;;8.95;4.63;;;;;;;-145.50;100.00;65435.88;5043034;28;20078;-74
2023/09/24 05:45:47;;;;;;;7.85;4.65;;;;;;;-145.50;100.00;65435.88;5058284;28;20054;-74
2023/09/24 05:48:15;;;;;;;7.13;4.63;;;;;;;-145.50;100.00;65435.88;5049314;28;20063;-74
2023/09/24 05:50:43;;;;;;;9.63;5.32;;;;;;;-145.50;100.00;65435.88;5043889;28;20149;-73
2023/09/24 05:53:10;;;;;;;8.20;5.30;;;;;;;-145.50;100.00;65435.88;5072344;28;20097;-73
2023/09/24 05:55:37;;;;;;;8.95;4.90;;;;;;;-145.50;100.00;65435.88;5045626;28;20063;-74
2023/09/24 05:58:05;;;;;;;7.72;4.53;;;;;;;-145.50;100.00;65435.88;5052883;28;20508;-74
2023/09/24 06:00:36;;;;;;;9.70;5.20;;;;;;;-145.50;100.00;65435.88;5046384;28;20076;-74
2023/09/24 06:03:03;;;;;;;8.15;5.15;;;;;;;-145.50;100.00;65435.88;5050388;28;20049;-74
2023/09/24 06:05:30;;;;;;;8.68;4.60;;;;;;;-145.50;100.00;65435.88;5058356;28;20504;-74
2023/09/24 06:07:57;;;;;;;7.18;4.72;;;;;;;-145.50;100.00;65435.88;5054907;28;20090;-74
2023/09/24 06:10:23;;;;;;;7.57;4.97;;;;;;;-145.50;100.00;65435.88;5055534;28;20570;-73
2023/09/24 06:12:50;;;;;;;8.13;4.57;;;;;;;-145.50;100.00;65435.88;5046742;28;20140;-74
2023/09/24 06:15:17;;;;;;;9.07;4.85;;;;;;;-145.50;100.00;65435.88;5054303;28;20079;-74
2023/09/24 06:17:44;;;;;;;6.20;4.55;;;;;;;-145.50;100.00;65435.88;5049320;28;20052;-76
2023/09/24 06:20:12;;;;;;;10.65;5.45;;;;;;;-145.50;100.00;65435.88;5055004;28;20526;-75
2023/09/24 06:22:40;;;;;;;8.20;5.63;;;;;;;-145.50;100.00;65435.88;5063895;28;20048;-75
2023/09/24 06:25:07;;;;;;;8.10;5.10;;;;;;;-145.50;100.00;65435.88;5056042;28;20048;-75
2023/09/24 06:27:34;;;;;;;11.60;6.22;;;;;;;-145.50;100.00;65435.88;5048328;28;20418;-74
2023/09/24 06:30:04;;;;;;;7.78;6.05;;;;;;;-145.50;100.00;65435.88;5052481;28;20063;-75
2023/09/24 06:32:31;;;;;;;9.20;6.32;;;;;;;-145.50;100.00;65435.88;5057944;28;20056;-75
2023/09/24 06:34:57;;;;;;;9.88;7.00;;;;;;;-145.50;100.00;65435.88;5052556;28;20094;-75
2023/09/24 06:37:24;;;;;;;7.90;6.28;;;;;;;-145.50;100.00;65435.88;5064627;28;20443;-73
2023/09/24 06:39:50;;;;;;;8.75;6.60;;;;;;;-145.50;100.00;65435.88;5063898;28;20041;-73
2023/09/24 06:42:17;;;;;;;11.13;6.95;;;;;;;-145.50;100.00;65435.88;5055644;28;20133;-74
2023/09/24 06:44:44;;;;;;;11.18;6.15;;;;;;;-145.50;100.00;65435.88;5046004;28;20410;-75
2023/09/24 06:47:11;;;;;;;11.23;7.15;;;;;;;-145.50;100.00;65435.88;5045190;28;20075;-74
2023/09/24 06:49:38;;;;;;;10.23;7.13;;;;;;;-145.50;100.00;65435.88;5060305;28;20045;-75
2023/09/24 06:52:05;;;;;;;12.77;6.93;;;;;;;-145.50;100.00;65435.88;5050786;28;20044;-74
2023/09/24 06:54:34;;;;;;;12.40;7.85;;;;;;;-145.50;100.00;65435.88;5052088;28;20103;-74
2023/09/24 06:57:01;;;;;;;11.10;7.68;;;;;;;-145.50;100.00;65435.88;5056897;28;20053;-74
2023/09/24 06:59:28;;;;;;;9.75;6.78;;;;;;;-145.50;100.00;65435.88;5048566;28;20635;-74
2023/09/24 07:01:54;;;;;;;10.40;8.00;;;;;;;-145.50;100.00;65435.88;5050663;28;20048;-75
2023/09/24 07:04:21;;;;;;;11.95;7.65;;;;;;;-145.50;100.00;65435.88;5048582;28;20420;-73
2023/09/24 07:06:51;;;;;;;9.02;7.03;;;;;;;-145.50;100.00;65435.88;5054427;28;20509;-75
2023/09/24 07:09:17;;;;;;;10.48;6.30;;;;;;;-145.50;100.00;65435.88;5039326;28;20130;-74
2023/09/24 07:11:44;;;;;;;9.23;5.55;;;;;;;-145.50;100.00;65435.88;5041463;28;20478;-74
2023/09/24 07:14:11;;;;;;;11.10;6.03;;;;;;;-145.50;100.00;65435.88;5057606;28;20587;-74
2023/09/24 07:16:38;;;;;;;11.35;6.53;;;;;;;-145.50;100.00;65435.88;5056010;28;20582;-74
2023/09/24 07:19:05;;;;;;;10.43;6.57;;;;;;;-145.50;100.00;65435.88;5064613;28;20055;-74
2023/09/24 07:21:33;;;;;;;9.75;6.50;;;;;;;-145.50;100.00;65435.88;5044996;28;20087;-74
2023/09/24 07:24:03;;;;;;;9.32;6.22;;;;;;;-145.50;100.00;65435.88;5053015;28;20140;-74
2023/09/24 07:26:30;;;;;;;11.70;6.63;;;;;;;-145.50;100.00;65435.88;5053444;28;20049;-74
2023/09/24 07:28:57;;;;;;;9.80;6.50;;;;;;;-145.50;100.00;65435.88;5057218;28;20136;-75
2023/09/24 07:31:25;;;;;;;10.75;6.55;;;;;;;-145.50;100.00;65435.88;5054655;28;20053;-75
2023/09/24 07:33:59;;;;;;;8.98;6.20;;;;;;;-145.50;100.00;65435.88;5044137;28;20287;-76
2023/09/24 07:36:32;;;;;;;10.13;5.70;;;;;;;-145.50;100.00;65435.88;5047245;28;20149;-75
2023/09/24 07:39:10;;;;;;;9.43;6.43;;;;;;;-145.50;100.00;65435.88;5053946;28;20061;-74
2023/09/24 07:41:37;;;;;;;9.27;6.13;;;;;;;-145.50;100.00;65435.88;5046192;28;20519;-73
2023/09/24 07:44:04;;;;;;;9.38;6.03;;;;;;;-145.50;100.00;65435.88;5058255;28;20506;-75
2023/09/24 07:46:31;;;;;;;8.95;6.13;;;;;;;-145.50;100.00;65435.88;5062001;28;20048;-74
2023/09/24 07:49:03;;;;;;;11.85;6.20;;;;;;;-145.50;100.00;65435.88;5062542;28;20053;-74
2023/09/24 07:51:29;;;;;;;12.85;6.75;;;;;;;-145.50;100.00;65435.88;5055388;28;20520;-75
2023/09/24 07:53:56;;;;;;;7.60;5.60;;;;;;;-145.50;100.00;65435.88;5056137;28;20764;-75
2023/09/24 07:56:23;;;;;;;10.07;6.03;;;;;;;-145.50;100.00;65435.88;5049687;28;20067;-75
2023/09/24 07:58:49;;;;;;;10.63;5.28;;;;;;;-145.50;100.00;65435.88;5048080;28;20067;-74
2023/09/24 08:01:18;;;;;;;8.23;5.07;;;;;;;-145.50;100.00;65435.88;5054742;28;20044;-74
2023/09/24 08:03:45;;;;;;;9.18;5.68;;;;;;;-145.50;100.00;65435.88;5065024;28;20114;-74
2023/09/24 08:06:12;;;;;;;15.07;5.80;;;;;;;-145.50;100.00;65435.88;5058873;28;20572;-75
2023/09/24 08:08:39;;;;;;;9.40;5.10;;;;;;;-145.50;100.00;65435.88;5053240;28;20052;-74
2023/09/24 08:11:21;;;;;;;11.30;4.82;;;;;;;-145.50;100.00;65435.88;5052836;28;20040;-75
2023/09/24 08:13:48;;;;;;;8.45;4.85;;;;;;;-145.50;100.00;65435.88;5057483;28;20048;-75
2023/09/24 08:16:19;;;;;;;8.75;5.10;;;;;;;-145.50;100.00;65435.88;5050279;28;20060;-74
2023/09/24 08:18:46;;;;;;;9.48;4.80;;;;;;;-145.50;100.00;65435.88;5033238;28;20056;-74
2023/09/24 08:21:14;;;;;;;7.93;4.28;;;;;;;-145.50;100.00;65435.88;5059140;28;20127;-74
2023/09/24 08:23:41;;;;;;;10.00;5.00;;;;;;;-145.50;100.00;65435.88;5051394;28;20133;-74
2023/09/24 08:26:07;;;;;;;9.55;4.43;;;;;;;-145.50;100.00;65435.88;5046700;28;20631;-74
2023/09/24 08:28:34;;;;;;;9.65;4.25;;;;;;;-145.50;100.00;65435.88;5062358;28;20052;-74
2023/09/24 08:31:07;;;;;;;6.47;3.40;;;;;;;-145.50;100.00;65435.88;5054904;28;20087;-74
2023/09/24 08:33:34;;;;;;;9.68;4.57;;;;;;;-145.50;100.00;65435.88;5060070;28;20044;-75
2023/09/24 08:36:01;;;;;;;10.80;4.60;;;;;;;-145.50;100.00;65435.88;5050669;28;20056;-74
2023/09/24 08:38:27;;;;;;;11.35;4.13;;;;;;;-145.50;100.00;65435.88;5060750;28;20495;-74
2023/09/24 08:40:54;;;;;;;8.23;4.30;;;;;;;-145.50;100.00;65435.88;5062986;28;20411;-74
2023/09/24 08:43:27;;;;;;;8.52;3.53;;;;;;;-145.50;100.00;65435.88;5041988;28;20052;-75
2023/09/24 08:45:54;;;;;;;6.32;2.50;;;;;;;-145.50;100.00;65435.88;5061771;28;20071;-75
2023/09/24 08:48:22;;;;;;;9.25;2.80;;;;;;;-145.50;100.00;65435.88;5037807;28;20040;-74
2023/09/24 08:50:48;;;;;;;8.63;2.47;;;;;;;-145.50;100.00;65435.88;5057924;28;20517;-74
2023/09/24 08:53:16;;;;;;;6.97;2.78;;;;;;;-145.50;100.00;65435.88;5037611;28;20535;-74
2023/09/24 08:55:43;;;;;;;5.72;2.70;;;;;;;-145.50;100.00;65435.88;5062067;28;20051;-74
2023/09/24 08:58:11;;;;;;;7.20;3.13;;;;;;;-145.50;100.00;65435.88;5058359;28;20049;-75
2023/09/24 09:00:38;;;;;;;5.65;2.90;;;;;;;-145.50;100.00;65435.88;5052328;28;20051;-74
2023/09/24 09:03:06;;;;;;;5.20;2.55;;;;;;;-145.50;100.00;65435.88;5061749;28;20048;-74
2023/09/24 09:05:38;;;;;;;5.80;2.33;;;;;;;-145.50;100.00;65435.88;5048542;28;20460;-73
2023/09/24 09:08:05;;;;;;;13.85;3.33;;;;;;;-145.50;100.00;65435.88;5054313;28;20053;-73
2023/09/24 09:10:33;;;;;;;6.78;3.13;;;;;;;-145.50;100.00;65435.88;5049283;28;20048;-73
2023/09/24 09:13:11;;;;;;;;;;;;;;;-145.50;100.00;65435.88;5039091;28;20065;-73
2023/09/24 09:15:39;;;;;;;6.63;3.25;;;;;;;-145.50;100.00;65435.88;5054196;28;19930;-73
2023/09/24 09:18:06;;;;;;;5.43;2.80;;;;;;;-145.50;100.00;65435.88;5053948;28;20398;-73
2023/09/24 09:20:45;;;;;;;8.13;3.25;;;;;;;-145.50;100.00;65435.88;5059972;28;20048;-73
2023/09/24 09:23:13;;;;;;;4.97;2.70;;;;;;;-145.50;100.00;65435.88;5050571;28;20063;-73
2023/09/24 09:25:52;;;;;;;5.60;2.08;;;;;;;-145.50;100.00;65435.88;5046466;28;20792;-73
2023/09/24 09:28:20;;;;;;;6.22;1.88;;;;;;;-145.50;100.00;65435.88;5050139;28;20064;-73
2023/09/24 09:30:57;;;;;;;8.00;2.15;;;;;;;-145.50;100.00;65435.88;5062613;28;20045;-73
2023/09/24 09:33:29;;;;;;;6.68;2.33;;;;;;;-145.50;100.00;65435.88;5046931;28;20049;-74
2023/09/24 09:35:57;;;;;;;4.32;2.38;;;;;;;-145.50;100.00;65435.88;5060669;28;20429;-74
2023/09/24 09:38:26;;;;;;;9.32;2.03;;;;;;;-145.50;100.00;65435.88;5056418;28;20057;-73
2023/09/24 09:41:01;;;;;;;7.70;2.50;;;;;;;-145.50;100.00;65435.88;5042119;28;20052;-72
2023/09/24 09:43:33;;;;;;;6.35;2.20;;;;;;;-145.50;100.00;65435.88;5052085;28;20559;-73
2023/09/24 09:46:00;;;;;;;6.15;2.33;;;;;;;-145.50;100.00;65435.88;5035637;28;20394;-72
2023/09/24 09:48:29;;;;;;;5.20;2.10;;;;;;;-145.50;100.00;65435.88;5057690;28;20084;-72
2023/09/24 09:51:02;;;;;;;5.53;2.08;;;;;;;-145.50;100.00;65435.88;5039139;28;20053;-72
2023/09/24 09:53:34;;;;;;;5.93;2.10;;;;;;;-145.50;100.00;65435.88;5051569;28;20040;-73
2023/09/24 09:56:04;;;;;;;7.43;2.05;;;;;;;-145.50;100.00;65435.88;5056747;28;20057;-73
2023/09/24 09:58:36;;;;;;;6.47;2.78;;;;;;;-145.50;100.00;65435.88;5046486;28;20044;-73
2023/09/24 10:01:07;;;;;;;8.35;2.00;;;;;;;-145.50;100.00;65435.88;5065409;28;20397;-72
2023/09/24 10:03:39;;;;;;;5.22;2.20;;;;;;;-145.50;100.00;65435.88;5054745;28;20486;-73
2023/09/24 10:06:08;;;;;;;3.90;1.52;;;;;;;-145.50;100.00;65435.88;5036240;28;20386;-73
2023/09/24 10:08:36;;;;;;;7.10;2.10;;;;;;;-145.50;100.00;65435.88;5039708;28;20238;-72
2023/09/24 10:11:06;;;;;;;4.72;2.00;;;;;;;-145.50;100.00;65435.88;5045931;28;20068;-74
2023/09/24 10:13:44;;;;;;;9.88;2.30;;;;;;;-145.50;100.00;65435.88;5050972;28;20060;-72
2023/09/24 10:16:26;;;;;;;5.78;2.10;;;;;;;-145.50;100.00;65435.88;5043965;28;20562;-73
2023/09/24 10:19:00;;;;;;;8.18;1.70;;;;;;;-145.50;100.00;65435.88;5048569;28;20055;-73
2023/09/24 10:21:29;;;;;;;4.43;1.63;;;;;;;-145.50;100.00;65435.88;5036979;28;20132;-73
2023/09/24 10:24:02;;;;;;;3.33;1.58;;;;;;;-145.50;100.00;65435.88;5044844;28;20056;-73
2023/09/24 10:26:52;;;;;;;3.75;1.52;;;;;;;-145.50;100.00;65435.88;5045928;28;20172;-73
2023/09/24 10:29:39;;;;;;;4.03;1.35;;;;;;;-145.50;100.00;65435.88;5051096;28;20167;-73
2023/09/24 10:32:06;;;;;;;7.40;1.70;;;;;;;-145.50;100.00;65435.88;5044784;28;20053;-73
2023/09/24 10:34:51;;;;;;;4.20;1.58;;;;;;;-145.50;100.00;65435.88;5050030;28;20064;-73
2023/09/24 10:37:29;;;;;;;4.30;1.23;;;;;;;-145.50;100.00;65435.88;5041487;28;20067;-73
2023/09/24 10:40:05;;;;;;;;;;;;;;;-145.50;100.00;65435.88;5049366;28;20052;-73
2023/09/24 10:42:42;;;;;;;6.45;1.45;;;;;;;-145.50;100.00;65435.88;5044342;28;19924;-73
2023/09/24 10:45:10;;;;;;;5.13;1.95;;;;;;;-145.50;100.00;65435.88;5048532;28;20056;-73
2023/09/24 10:47:41;;;;;;;;;;;;;;;-145.50;100.00;65435.88;5046423;28;20052;-72
2023/09/24 10:50:10;;;;;;;6.50;1.60;;;;;;;-145.50;100.00;65435.88;5040308;28;20310;-72
2023/09/24 10:52:58;;;;;;;5.13;1.35;;;;;;;-145.50;100.00;65435.88;5054443;28;20413;-73
2023/09/24 10:55:34;;;;;;;3.45;1.40;;;;;;;-145.50;100.00;65435.88;5042001;28;20057;-73
2023/09/24 10:58:02;;;;;;;4.15;1.30;;;;;;;-145.50;100.00;65435.88;5046587;28;20446;-73
2023/09/24 11:00:31;;;;;;;4.50;1.60;;;;;;;-145.50;100.00;65435.88;5042172;28;20375;-74
2023/09/24 11:03:06;;;;;;;4.45;1.23;;;;;;;-145.50;100.00;65435.88;5047437;28;20048;-73
2023/09/24 11:05:46;;;;;;;3.03;1.23;;;;;;;-145.50;100.00;65435.88;5049530;28;20071;-73
2023/09/24 11:08:14;;;;;;;5.93;1.63;;;;;;;-145.50;100.00;65435.88;5036157;28;20044;-73
2023/09/24 11:10:45;;;;;;;3.45;1.38;;;;;;;-145.50;100.00;65435.88;5052521;28;20044;-73
2023/09/24 11:13:12;;;;;;;4.53;1.40;;;;;;;-145.50;100.00;65435.88;5040107;28;20456;-72
2023/09/24 11:15:39;;;;;;;4.18;1.20;;;;;;;-145.50;100.00;65435.88;5039548;28;20080;-74
2023/09/24 11:18:09;;;;;;;3.42;1.20;;;;;;;-145.50;100.00;65435.88;5037827;28;20497;-73